Terminal Aerodrome Forecast
Issued by NWS

Home | Current Version | Previous Version | Graphics & Text | Print | Product List | Glossary On
Versions: 1 2 3 4 5 6 7 8 9 10 11 12 13
000
FTUS43 KFGF 151700
TAFBJI
TAF
KBJI 151726Z 1518/1618 VRB05KT P6SM BKN250
     FM160100 10012KT P6SM BKN080
     FM161000 07012G18KT P6SM OVC040=

USA.gov is the U.S. government's official web portal to all federal, state and local government web resources and services.